• Join FlightAware (Why Join?)
  • Login
  • US Flag 
08:41AM EDT


 

Airport Tracker/Info


-or-


 

Live Flight TrackerFlight Track Log ✈ SWA558 ✈ 22-Apr-2013 ✈ KRSW - KMDW

Flight Track Log - Related Links

Times and Time Zones

All times are in EDT time to prevent confusion due to time zone crossing. See the SWA558 flight status page for this flight to view local times or setup timezone preferences in your user account.

Time Position Orientation Groundspeed Altitude Reporting Facility
EDT Latitude Longitude Course Direction KTS MPH feet Rate Location/Type
01:02PM 26.6239 -81.7153 347° North 232 267 3,600  Level Miami Center
01:03PM 26.6928 -81.7206 356° North 257 296 7,100 3,540 Climbing Miami Center
01:04PM 26.7717 -81.7283 355° North 268 308 10,700 2,880 Climbing Miami Center
01:05PM 26.8656 -81.7322 358° North 299 344 12,900 2,520 Climbing Miami Center
01:06PM 26.9675 -81.7411 356° North 337 388 15,800 3,060 Climbing Miami Center
01:07PM 27.1885 -81.7971 347° North  Level FlightAware Approximate
01:07PM 27.0714 -81.7597 351° North 370 426 19,100  Level Miami Center
01:08PM 27.1744 -81.7942 343° North 376 433 21,500 2,280 Climbing Miami Center
01:09PM 27.2839 -81.8317 343° North 394 453 23,700 2,100 Climbing Miami Center
01:10PM 27.3850 -81.8642 344° North 414 476 25,800 1,980 Climbing Miami Center
01:11PM 27.4983 -81.9064 342° North 421 484 27,700 1,800 Climbing Miami Center
01:12PM 27.6281 -81.9519 343° North 430 495 29,500 1,140 Climbing Miami Center
01:13PM 27.7497 -81.9950 343° North 442 509 30,000 240 Climbing Miami Center
01:14PM 27.8703 -82.0122 353° North 442 509 30,000 60 Level Miami Center
01:16PM 28.1392 -82.1111 342° North 434 499 30,300 600 Climbing Jacksonville Center
01:17PM 28.2461 -82.1786 331° Northwest 434 499 32,000 840 Climbing Jacksonville Center
01:18PM 28.3508 -82.2464 330° Northwest 434 499 32,000  Level Jacksonville Center
01:19PM 28.4594 -82.3142 331° Northwest 439 505 32,000  Level Jacksonville Center
01:20PM 28.5642 -82.3819 330° Northwest 439 505 32,000 420 Level Jacksonville Center
01:21PM 28.6708 -82.4500 331° Northwest 439 505 32,900 1,140 Climbing Jacksonville Center
01:22PM 28.7756 -82.5136 332° Northwest 439 505 34,300 1,500 Climbing Jacksonville Center
01:23PM 28.8819 -82.5844 330° Northwest 439 505 35,900 840 Climbing Jacksonville Center
01:24PM 28.9867 -82.6553 329° Northwest 439 505 36,000 420 Climbing Jacksonville Center
01:25PM 29.0931 -82.7214 332° Northwest 439 505 36,800 900 Climbing Jacksonville Center
01:26PM 29.1975 -82.7903 330° Northwest 434 499 37,800 600 Climbing Jacksonville Center
01:27PM 29.3019 -82.8592 330° Northwest 434 499 38,000 60 Climbing Jacksonville Center
01:28PM 29.4083 -82.9258 331° Northwest 434 499 38,000  Level Jacksonville Center
01:29PM 29.5067 -82.9903 330° Northwest 441 507 38,000  Level Jacksonville Center
01:30PM 29.6131 -83.0575 331° Northwest 441 507 38,000  Level Jacksonville Center
01:31PM 29.7297 -83.1128 338° Northwest 441 507 38,000  Level Jacksonville Center
01:32PM 29.8403 -83.1631 338° Northwest 442 509 38,000  Level Jacksonville Center
01:33PM 29.9572 -83.2161 339° North 442 509 38,000  Level Jacksonville Center
01:34PM 30.0739 -83.2694 338° Northwest 437 503 38,000  Level Jacksonville Center
01:35PM 30.1886 -83.3228 338° Northwest 437 503 38,000  Level Jacksonville Center
01:36PM 30.3031 -83.3786 337° Northwest 437 503 38,000  Level Jacksonville Center
01:37PM 30.4178 -83.4297 339° North 437 503 38,000  Level Jacksonville Center
01:38PM 30.5283 -83.4811 338° Northwest 437 503 38,000  Level Jacksonville Center
01:39PM 30.6408 -83.5347 338° Northwest 437 503 38,000  Level Jacksonville Center
01:40PM 30.7511 -83.5886 337° Northwest 429 494 38,000  Level Jacksonville Center
01:41PM 30.8656 -83.6406 339° North 429 494 38,000  Level Jacksonville Center
01:42PM 30.9758 -83.6969 336° Northwest 434 499 38,000  Level Jacksonville Center
01:43PM 31.0864 -83.7514 337° Northwest 428 493 38,000  Level Jacksonville Center
01:45PM 31.2728 -83.8422 337° Northwest 452 520 38,000  Level Atlanta Center
01:46PM 31.3875 -83.8978 338° Northwest 452 520 38,000  Level Atlanta Center
01:47PM 31.5044 -83.9536 338° Northwest 452 520 38,000  Level Atlanta Center
01:48PM 31.6297 -83.9878 347° North 452 520 38,000  Level Atlanta Center
01:49PM 31.7550 -84.0119 351° North 452 520 38,000  Level Atlanta Center
01:51PM 31.9950 -84.0633 350° North 458 527 38,000  Level Atlanta Center
01:52PM 32.1222 -84.0928 349° North 458 527 38,000  Level Atlanta Center
01:53PM 32.2475 -84.1222 349° North 458 527 38,000  Level Atlanta Center
01:54PM 32.3747 -84.1494 350° North 458 527 38,000  Level Atlanta Center
01:55PM 32.5000 -84.1792 349° North 458 527 38,000  Level Atlanta Center
01:56PM 32.6272 -84.2067 350° North 458 527 38,000  Level Atlanta Center
01:57PM 32.7567 -84.2364 349° North 458 527 38,000  Level Atlanta Center
01:58PM 32.8819 -84.2664 349° North 458 527 38,000  Level Atlanta Center
01:59PM 33.0069 -84.2939 350° North 464 534 38,000  Level Atlanta Center
02:00PM 33.1386 -84.3267 348° North 471 542 38,000  Level Atlanta Center
02:01PM 33.2617 -84.3544 349° North 464 534 38,000  Level Atlanta Center
02:02PM 33.4033 -84.3847 350° North 470 541 38,000  Level Atlanta Center
02:03PM 33.5328 -84.4150 349° North 463 533 38,000  Level Atlanta Center
02:04PM 33.6433 -84.4431 348° North 464 534 38,000  Level Atlanta Center
02:05PM 33.7747 -84.4736 349° North 467 537 38,000  Level Atlanta Center
02:06PM 33.9019 -84.5042 349° North 465 535 38,000  Level Atlanta Center
02:07PM 34.0333 -84.5375 348° North 472 543 38,000  Level Atlanta Center
02:08PM 34.1667 -84.5661 350° North 478 550 38,000  Level Atlanta Center
02:09PM 34.2961 -84.5969 349° North 481 554 38,000  Level Atlanta Center
02:10PM 34.4272 -84.6306 348° North 481 554 38,000  Level Atlanta Center
02:11PM 34.5692 -84.6644 349° North 481 554 38,000  Level Atlanta Center
02:12PM 34.6817 -84.6931 348° North 474 545 38,000  Level Atlanta Center
02:13PM 34.8108 -84.7244 349° North 468 539 38,000  Level Atlanta Center
02:14PM 34.9400 -84.7583 348° North 468 539 38,000  Level Atlanta Center
02:15PM 35.0714 -84.7900 349° North 468 539 38,000  Level Atlanta Center
02:16PM 35.2006 -84.8242 348° North 468 539 38,000  Level Atlanta Center
02:17PM 35.3275 -84.8558 348° North 468 539 38,000  Level Atlanta Center
02:18PM 35.4544 -84.8878 348° North 468 539 38,000  Level Atlanta Center
02:19PM 35.5817 -84.9197 348° North 468 539 38,000  Level Atlanta Center
02:20PM 35.7128 -84.9544 348° North 468 539 38,000  Level Atlanta Center
02:21PM 35.8397 -84.9839 349° North 468 539 38,000  Level Atlanta Center
02:23PM 36.1358 -85.0594 348° North 470 541 38,000  Level Indianapolis Center
02:24PM 36.2636 -85.0925 348° North 469 540 38,000  Level Indianapolis Center
02:25PM 36.3922 -85.1253 348° North 471 542 38,000  Level Indianapolis Center
02:26PM 36.5211 -85.1589 348° North 472 543 38,000  Level Indianapolis Center
02:27PM 36.6494 -85.1922 348° North 470 541 38,000  Level Indianapolis Center
02:28PM 36.7772 -85.2258 348° North 469 540 38,000  Level Indianapolis Center
02:29PM 36.9294 -85.2658 348° North 465 535 38,000  Level Indianapolis Center
02:30PM 37.0550 -85.2969 349° North 466 536 38,000  Level Indianapolis Center
02:31PM 37.1808 -85.3306 348° North 462 532 38,000  Level Indianapolis Center
02:32PM 37.3072 -85.3639 348° North 462 532 38,000  Level Indianapolis Center
02:34PM 37.4333 -85.3972 348° North 462 532 38,000  Level Indianapolis Center
02:35PM 37.5819 -85.4328 349° North 464 534 38,000  Level Indianapolis Center
02:36PM 37.7089 -85.4583 351° North 461 531 38,000 -180 Level Indianapolis Center
02:37PM 37.8364 -85.4844 351° North 462 532 37,700 -600 Descending Indianapolis Center
02:38PM 37.9508 -85.5067 351° North 460 529 36,800 -960 Descending Indianapolis Center
02:39PM 38.0775 -85.5333 351° North 460 529 35,800 -1,020 Descending Indianapolis Center
02:40PM 38.2289 -85.5639 351° North 456 525 34,700 -1,020 Descending Indianapolis Center
02:41PM 38.3528 -85.5897 351° North 451 519 33,800 -840 Descending Indianapolis Center
02:42PM 38.4742 -85.6144 351° North 444 511 33,000 -420 Descending Indianapolis Center
02:43PM 38.5947 -85.6397 351° North 440 506 33,000 -120 Level Indianapolis Center
02:44PM 38.7150 -85.6664 350° North 439 505 32,800 -600 Descending Indianapolis Center
02:45PM 38.8353 -85.6919 351° North 439 505 31,800 -1,020 Descending Indianapolis Center
02:46PM 38.9825 -85.7219 351° North 443 510 30,700 -900 Descending Indianapolis Center
02:47PM 39.1050 -85.7483 351° North 445 512 30,000 -780 Descending Indianapolis Center
02:48PM 39.2258 -85.7736 351° North 441 507 29,100 -540 Descending Indianapolis Center
02:49PM 39.3469 -85.8003 350° North 440 506 28,900 -600 Descending Indianapolis Center
02:50PM 39.4658 -85.8247 351° North 434 499 27,900 -1,080 Descending Indianapolis Center
02:51PM 39.5825 -85.8514 350° North 428 493 26,800 -1,080 Descending Indianapolis Center
02:52PM 39.7103 -85.8778 351° North 418 481 25,700 -1,020 Descending Indianapolis Center
02:53PM 39.8261 -85.9033 350° North 417 480 24,700 -840 Descending Indianapolis Center
02:54PM 39.9394 -85.9275 351° North 412 474 24,000 -360 Descending Indianapolis Center
02:55PM 40.0531 -85.9678 345° North 400 460 24,000 -60 Level Indianapolis Center
02:56PM 40.1600 -86.0167 341° North 401 461 23,900 -600 Descending Indianapolis Center
02:57PM 40.2608 -86.0633 341° North 401 461 22,800 -960 Descending Indianapolis Center
02:58PM 40.3667 -86.1133 340° North 400 460 22,000 -420 Descending Indianapolis Center
02:59PM 40.4900 -86.1694 341° North 399 459 22,000 -480 Level Indianapolis Center
03:00PM 40.5961 -86.2192 340° North 398 458 21,100 -1,440 Descending Indianapolis Center
03:01PM 40.7006 -86.2675 341° North 396 456 19,100 -2,040 Descending Indianapolis Center
03:02PM 40.8022 -86.3158 340° North 387 445 17,000 -1,680 Descending Indianapolis Center
03:03PM 40.9064 -86.3642 341° North 386 444 15,700 -2,460 Descending Indianapolis Center
03:05PM 41.0175 -86.4186 340° North 371 427 11,600 -2,160 Descending Chicago Center
03:06PM 41.0914 -86.4992 321° Northwest 351 404 11,000 -720 Descending Chicago Center
03:07PM 41.1536 -86.5958 311° West 344 396 10,200 -480 Descending Chicago Center
03:08PM 41.2150 -86.6908 311° West 340 391 10,100 -120 Descending Chicago Center
03:09PM 41.2850 -86.7972 311° West 341 392 10,000 -180 Descending Chicago Center
03:10PM 41.3406 -86.8839 311° West 315 362 9,800 -900 Descending Chicago Center
03:11PM 41.3900 -86.9617 310° West 284 327 8,200 -1,620 Descending Chicago Center
03:12PM 41.4417 -87.0428 310° West 286 329 6,500 -1,080 Descending Chicago Center
03:13PM 41.5014 -87.1344 311° West 280 322 6,000 -300 Descending Chicago Center
03:14PM 41.5167 -87.2000 287° West 276 318 6,000  Level Chicago TRACON
03:15PM 41.5167 -87.3000 270° West 279 321 6,000 -420 Level Chicago TRACON
03:16PM 41.5833 -87.3833 317° Northwest 277 319 5,200 -780 Descending Chicago TRACON
03:16PM 41.5922 -87.3922 323° Northwest 276 318 5,000 -1,200 Descending Chicago Center
03:17PM 41.6472 -87.4622 316° Northwest 276 318 3,600 -1,080 Descending Chicago Center
03:18PM 41.7111 -87.5422 317° Northwest 272 313 2,900 -780 Descending Chicago Center
03:19PM 41.7539 -87.6064 312° West 255 293 2,000 -600 Descending Chicago Center
03:20PM 41.7833 -87.6500 312° West 232 267 2,000 -300 Level Chicago TRACON
03:21PM 41.8167 -87.7000 312° West 167 192 1,600 -420 Descending Chicago TRACON
03:23PM 41.7833 -87.7500 334° Northwest  Level FlightAware Approximate